sensor_id;sensor_type;location;lat;lon;timestamp;temperature;humidity
63371;DHT22;49504;48.336;14.472;2022-10-13T00:03:00;26.30;49.60
63371;DHT22;49504;48.336;14.472;2022-10-13T00:08:02;26.30;49.60
63371;DHT22;49504;48.336;14.472;2022-10-13T00:13:04;26.30;49.50
63371;DHT22;49504;48.336;14.472;2022-10-13T00:18:06;26.30;49.60
63371;DHT22;49504;48.336;14.472;2022-10-13T00:23:09;26.30;49.60
63371;DHT22;49504;48.336;14.472;2022-10-13T00:28:10;26.30;49.60
63371;DHT22;49504;48.336;14.472;2022-10-13T00:33:12;26.30;49.70
63371;DHT22;49504;48.336;14.472;2022-10-13T00:38:17;26.30;49.80
63371;DHT22;49504;48.336;14.472;2022-10-13T00:43:21;26.30;49.80
63371;DHT22;49504;48.336;14.472;2022-10-13T00:50:41;26.30;49.40
63371;DHT22;49504;48.336;14.472;2022-10-13T00:55:44;26.30;50.10
63371;DHT22;49504;48.336;14.472;2022-10-13T01:00:48;26.20;50.00
63371;DHT22;49504;48.336;14.472;2022-10-13T01:05:54;26.30;50.20
63371;DHT22;49504;48.336;14.472;2022-10-13T01:11:06;26.30;50.10
63371;DHT22;49504;48.336;14.472;2022-10-13T01:16:22;26.20;50.20
63371;DHT22;49504;48.336;14.472;2022-10-13T01:22:22;26.20;49.70
63371;DHT22;49504;48.336;14.472;2022-10-13T01:27:44;26.30;50.60
63371;DHT22;49504;48.336;14.472;2022-10-13T01:33:03;26.30;50.50
63371;DHT22;49504;48.336;14.472;2022-10-13T01:38:14;26.20;50.50
63371;DHT22;49504;48.336;14.472;2022-10-13T01:43:22;26.20;50.60
63371;DHT22;49504;48.336;14.472;2022-10-13T01:48:27;26.20;50.60
63371;DHT22;49504;48.336;14.472;2022-10-13T01:53:29;26.20;50.70
63371;DHT22;49504;48.336;14.472;2022-10-13T01:58:33;26.20;50.80
63371;DHT22;49504;48.336;14.472;2022-10-13T02:03:43;26.30;50.80
63371;DHT22;49504;48.336;14.472;2022-10-13T02:08:57;26.20;50.70
63371;DHT22;49504;48.336;14.472;2022-10-13T02:14:09;26.20;50.80
63371;DHT22;49504;48.336;14.472;2022-10-13T02:19:16;26.20;50.80
63371;DHT22;49504;48.336;14.472;2022-10-13T02:24:18;26.20;50.80
63371;DHT22;49504;48.336;14.472;2022-10-13T02:29:20;26.20;50.80
63371;DHT22;49504;48.336;14.472;2022-10-13T02:35:51;26.20;50.20
63371;DHT22;49504;48.336;14.472;2022-10-13T02:44:41;26.20;50.20
63371;DHT22;49504;48.336;14.472;2022-10-13T02:49:42;26.20;50.90
63371;DHT22;49504;48.336;14.472;2022-10-13T02:54:43;26.20;50.90
63371;DHT22;49504;48.336;14.472;2022-10-13T02:59:45;26.20;51.00
63371;DHT22;49504;48.336;14.472;2022-10-13T03:04:46;26.20;51.00
63371;DHT22;49504;48.336;14.472;2022-10-13T03:09:47;26.20;51.00
63371;DHT22;49504;48.336;14.472;2022-10-13T03:14:50;26.20;51.00
63371;DHT22;49504;48.336;14.472;2022-10-13T03:19:51;26.20;51.00
63371;DHT22;49504;48.336;14.472;2022-10-13T03:24:52;26.20;51.00
63371;DHT22;49504;48.336;14.472;2022-10-13T03:29:54;26.20;51.00
63371;DHT22;49504;48.336;14.472;2022-10-13T03:34:55;26.20;51.00
63371;DHT22;49504;48.336;14.472;2022-10-13T03:39:56;26.20;51.10
63371;DHT22;49504;48.336;14.472;2022-10-13T03:44:58;26.20;51.10
63371;DHT22;49504;48.336;14.472;2022-10-13T03:49:59;26.10;51.00
63371;DHT22;49504;48.336;14.472;2022-10-13T03:55:00;26.20;51.00
63371;DHT22;49504;48.336;14.472;2022-10-13T04:00:03;26.10;51.00
63371;DHT22;49504;48.336;14.472;2022-10-13T04:05:05;26.10;51.00
63371;DHT22;49504;48.336;14.472;2022-10-13T04:10:07;26.10;50.30
63371;DHT22;49504;48.336;14.472;2022-10-13T04:15:11;26.10;50.20
63371;DHT22;49504;48.336;14.472;2022-10-13T04:20:11;26.10;50.20
63371;DHT22;49504;48.336;14.472;2022-10-13T04:25:44;26.10;49.70
63371;DHT22;49504;48.336;14.472;2022-10-13T04:30:46;26.10;50.30
63371;DHT22;49504;48.336;14.472;2022-10-13T04:35:46;26.10;50.10
63371;DHT22;49504;48.336;14.472;2022-10-13T04:40:49;26.10;49.90
63371;DHT22;49504;48.336;14.472;2022-10-13T04:45:50;26.10;49.80
63371;DHT22;49504;48.336;14.472;2022-10-13T04:50:58;26.20;50.20
63371;DHT22;49504;48.336;14.472;2022-10-13T04:56:03;26.10;49.90
63371;DHT22;49504;48.336;14.472;2022-10-13T05:01:06;26.10;49.80
63371;DHT22;49504;48.336;14.472;2022-10-13T05:06:14;26.10;49.70
63371;DHT22;49504;48.336;14.472;2022-10-13T05:12:21;26.10;49.60
63371;DHT22;49504;48.336;14.472;2022-10-13T05:20:13;26.10;49.60
63371;DHT22;49504;48.336;14.472;2022-10-13T05:25:14;26.10;50.50
63371;DHT22;49504;48.336;14.472;2022-10-13T05:30:15;26.10;50.50
63371;DHT22;49504;48.336;14.472;2022-10-13T05:35:18;26.10;50.40
63371;DHT22;49504;48.336;14.472;2022-10-13T05:40:19;26.10;50.40
63371;DHT22;49504;48.336;14.472;2022-10-13T05:45:21;26.10;50.30
63371;DHT22;49504;48.336;14.472;2022-10-13T05:54:53;26.10;49.70
63371;DHT22;49504;48.336;14.472;2022-10-13T06:00:00;26.10;50.40
63371;DHT22;49504;48.336;14.472;2022-10-13T06:05:05;26.10;50.10
63371;DHT22;49504;48.336;14.472;2022-10-13T06:10:09;26.10;50.50
63371;DHT22;49504;48.336;14.472;2022-10-13T06:15:10;26.10;49.70
63371;DHT22;49504;48.336;14.472;2022-10-13T06:20:11;26.10;50.70
63371;DHT22;49504;48.336;14.472;2022-10-13T06:25:14;26.10;50.90
63371;DHT22;49504;48.336;14.472;2022-10-13T06:30:15;26.10;50.30
63371;DHT22;49504;48.336;14.472;2022-10-13T06:35:16;26.10;50.80
63371;DHT22;49504;48.336;14.472;2022-10-13T06:42:36;26.10;50.30
63371;DHT22;49504;48.336;14.472;2022-10-13T06:47:38;26.10;51.10
63371;DHT22;49504;48.336;14.472;2022-10-13T06:52:38;26.10;51.10
63371;DHT22;49504;48.336;14.472;2022-10-13T06:57:41;26.10;51.10
63371;DHT22;49504;48.336;14.472;2022-10-13T07:03:10;26.10;50.40
63371;DHT22;49504;48.336;14.472;2022-10-13T07:08:11;26.10;51.10
63371;DHT22;49504;48.336;14.472;2022-10-13T07:13:12;26.10;51.80
63371;DHT22;49504;48.336;14.472;2022-10-13T07:18:15;26.10;51.10
63371;DHT22;49504;48.336;14.472;2022-10-13T07:23:17;26.10;50.90
63371;DHT22;49504;48.336;14.472;2022-10-13T07:32:30;26.00;50.30
63371;DHT22;49504;48.336;14.472;2022-10-13T07:37:31;26.10;51.10
63371;DHT22;49504;48.336;14.472;2022-10-13T07:42:32;26.00;51.10
63371;DHT22;49504;48.336;14.472;2022-10-13T07:47:35;26.00;51.10
63371;DHT22;49504;48.336;14.472;2022-10-13T07:52:36;26.00;51.10
63371;DHT22;49504;48.336;14.472;2022-10-13T07:57:37;26.10;51.20
63371;DHT22;49504;48.336;14.472;2022-10-13T08:02:39;26.00;51.10
63371;DHT22;49504;48.336;14.472;2022-10-13T08:07:40;26.10;51.10
63371;DHT22;49504;48.336;14.472;2022-10-13T08:12:41;26.10;51.10
63371;DHT22;49504;48.336;14.472;2022-10-13T08:19:44;26.00;50.50
63371;DHT22;49504;48.336;14.472;2022-10-13T08:24:45;26.00;51.00
63371;DHT22;49504;48.336;14.472;2022-10-13T08:29:46;26.00;51.10
63371;DHT22;49504;48.336;14.472;2022-10-13T08:36:38;26.00;50.50
63371;DHT22;49504;48.336;14.472;2022-10-13T08:41:41;26.00;51.20
63371;DHT22;49504;48.336;14.472;2022-10-13T08:46:48;26.00;51.10
63371;DHT22;49504;48.336;14.472;2022-10-13T08:51:54;26.00;51.10
63371;DHT22;49504;48.336;14.472;2022-10-13T08:56:55;26.00;51.10
63371;DHT22;49504;48.336;14.472;2022-10-13T09:01:56;26.00;51.10
63371;DHT22;49504;48.336;14.472;2022-10-13T09:07:02;26.00;51.10
63371;DHT22;49504;48.336;14.472;2022-10-13T09:12:06;26.00;50.70
63371;DHT22;49504;48.336;14.472;2022-10-13T09:18:44;26.00;50.40
63371;DHT22;49504;48.336;14.472;2022-10-13T09:23:48;26.00;50.50
63371;DHT22;49504;48.336;14.472;2022-10-13T09:28:51;26.00;50.70
63371;DHT22;49504;48.336;14.472;2022-10-13T09:34:02;26.00;50.70
63371;DHT22;49504;48.336;14.472;2022-10-13T09:39:14;26.00;50.30
63371;DHT22;49504;48.336;14.472;2022-10-13T09:44:17;26.00;49.20
63371;DHT22;49504;48.336;14.472;2022-10-13T09:49:39;26.00;48.90
63371;DHT22;49504;48.336;14.472;2022-10-13T09:59:23;26.00;48.90
63371;DHT22;49504;48.336;14.472;2022-10-13T10:04:32;26.00;49.60
63371;DHT22;49504;48.336;14.472;2022-10-13T10:09:37;26.00;49.80
63371;DHT22;49504;48.336;14.472;2022-10-13T10:14:42;26.00;49.90
63371;DHT22;49504;48.336;14.472;2022-10-13T10:19:50;26.10;50.00
63371;DHT22;49504;48.336;14.472;2022-10-13T10:25:03;26.00;50.10
63371;DHT22;49504;48.336;14.472;2022-10-13T10:30:19;26.10;50.20
63371;DHT22;49504;48.336;14.472;2022-10-13T10:35:39;26.10;50.30
63371;DHT22;49504;48.336;14.472;2022-10-13T10:40:50;26.10;50.40
63371;DHT22;49504;48.336;14.472;2022-10-13T10:45:59;26.10;50.50
63371;DHT22;49504;48.336;14.472;2022-10-13T10:51:00;26.10;50.60
63371;DHT22;49504;48.336;14.472;2022-10-13T10:56:07;26.10;50.90
63371;DHT22;49504;48.336;14.472;2022-10-13T11:06:01;26.10;50.50
63371;DHT22;49504;48.336;14.472;2022-10-13T11:11:28;26.20;51.30
63371;DHT22;49504;48.336;14.472;2022-10-13T11:20:58;26.20;50.80
63371;DHT22;49504;48.336;14.472;2022-10-13T11:26:23;26.20;51.50
63371;DHT22;49504;48.336;14.472;2022-10-13T11:31:30;26.20;51.60
63371;DHT22;49504;48.336;14.472;2022-10-13T11:36:53;26.20;51.80
63371;DHT22;49504;48.336;14.472;2022-10-13T11:42:08;26.20;51.70
63371;DHT22;49504;48.336;14.472;2022-10-13T11:47:32;26.30;51.70
63371;DHT22;49504;48.336;14.472;2022-10-13T11:55:59;26.30;51.10
63371;DHT22;49504;48.336;14.472;2022-10-13T12:01:02;26.30;51.90
63371;DHT22;49504;48.336;14.472;2022-10-13T12:07:32;26.30;51.20
63371;DHT22;49504;48.336;14.472;2022-10-13T12:12:35;26.30;52.00
63371;DHT22;49504;48.336;14.472;2022-10-13T12:17:36;26.40;53.00
63371;DHT22;49504;48.336;14.472;2022-10-13T12:22:46;26.40;52.00
63371;DHT22;49504;48.336;14.472;2022-10-13T12:30:37;26.40;50.70
63371;DHT22;49504;48.336;14.472;2022-10-13T12:35:38;26.50;50.60
63371;DHT22;49504;48.336;14.472;2022-10-13T12:40:39;26.60;49.70
63371;DHT22;49504;48.336;14.472;2022-10-13T12:45:42;26.70;49.40
63371;DHT22;49504;48.336;14.472;2022-10-13T12:50:43;27.00;50.30
63371;DHT22;49504;48.336;14.472;2022-10-13T12:55:55;27.30;50.90
63371;DHT22;49504;48.336;14.472;2022-10-13T13:01:08;27.60;51.30
63371;DHT22;49504;48.336;14.472;2022-10-13T13:06:24;27.90;50.50
63371;DHT22;49504;48.336;14.472;2022-10-13T13:11:33;28.30;50.20
63371;DHT22;49504;48.336;14.472;2022-10-13T13:16:36;28.60;50.00
63371;DHT22;49504;48.336;14.472;2022-10-13T13:21:37;28.80;48.80
63371;DHT22;49504;48.336;14.472;2022-10-13T13:26:38;29.10;48.20
63371;DHT22;49504;48.336;14.472;2022-10-13T13:31:41;29.30;47.40
63371;DHT22;49504;48.336;14.472;2022-10-13T13:36:42;29.50;47.30
63371;DHT22;49504;48.336;14.472;2022-10-13T13:41:44;29.50;46.70
63371;DHT22;49504;48.336;14.472;2022-10-13T13:46:46;29.50;46.70
63371;DHT22;49504;48.336;14.472;2022-10-13T13:51:47;29.40;46.70
63371;DHT22;49504;48.336;14.472;2022-10-13T13:56:48;29.30;46.80
63371;DHT22;49504;48.336;14.472;2022-10-13T14:01:51;29.10;46.80
63371;DHT22;49504;48.336;14.472;2022-10-13T14:06:52;29.10;47.10
63371;DHT22;49504;48.336;14.472;2022-10-13T14:11:53;28.90;47.20
63371;DHT22;49504;48.336;14.472;2022-10-13T14:16:55;28.80;47.40
63371;DHT22;49504;48.336;14.472;2022-10-13T14:21:57;28.70;47.50
63371;DHT22;49504;48.336;14.472;2022-10-13T14:28:01;28.50;47.40
63371;DHT22;49504;48.336;14.472;2022-10-13T14:33:02;28.40;48.00
63371;DHT22;49504;48.336;14.472;2022-10-13T14:38:03;28.30;48.10
63371;DHT22;49504;48.336;14.472;2022-10-13T14:43:06;28.20;48.20
63371;DHT22;49504;48.336;14.472;2022-10-13T14:48:07;28.10;48.30
63371;DHT22;49504;48.336;14.472;2022-10-13T14:53:08;28.00;48.50
63371;DHT22;49504;48.336;14.472;2022-10-13T14:58:12;27.90;48.60
63371;DHT22;49504;48.336;14.472;2022-10-13T15:03:13;27.80;48.70
63371;DHT22;49504;48.336;14.472;2022-10-13T15:08:14;27.80;49.00
63371;DHT22;49504;48.336;14.472;2022-10-13T15:13:17;27.70;49.10
63371;DHT22;49504;48.336;14.472;2022-10-13T15:18:18;27.60;49.10
63371;DHT22;49504;48.336;14.472;2022-10-13T15:23:20;27.60;49.40
63371;DHT22;49504;48.336;14.472;2022-10-13T15:32:47;27.40;48.80
63371;DHT22;49504;48.336;14.472;2022-10-13T15:37:48;27.40;49.50
63371;DHT22;49504;48.336;14.472;2022-10-13T15:42:49;27.40;49.70
63371;DHT22;49504;48.336;14.472;2022-10-13T15:47:53;27.30;49.70
63371;DHT22;49504;48.336;14.472;2022-10-13T15:52:54;27.30;49.70
63371;DHT22;49504;48.336;14.472;2022-10-13T15:57:55;27.30;49.90
63371;DHT22;49504;48.336;14.472;2022-10-13T16:02:57;27.30;49.80
63371;DHT22;49504;48.336;14.472;2022-10-13T16:07:58;27.20;50.00
63371;DHT22;49504;48.336;14.472;2022-10-13T16:20:17;27.10;49.30
63371;DHT22;49504;48.336;14.472;2022-10-13T16:28:54;27.10;49.50
63371;DHT22;49504;48.336;14.472;2022-10-13T16:34:52;27.10;49.50
63371;DHT22;49504;48.336;14.472;2022-10-13T16:39:53;27.10;50.30
63371;DHT22;49504;48.336;14.472;2022-10-13T16:44:54;27.10;50.30
63371;DHT22;49504;48.336;14.472;2022-10-13T16:53:42;27.00;49.50
63371;DHT22;49504;48.336;14.472;2022-10-13T17:03:25;27.00;49.50
63371;DHT22;49504;48.336;14.472;2022-10-13T17:08:25;27.00;50.50
63371;DHT22;49504;48.336;14.472;2022-10-13T17:13:26;27.00;50.30
63371;DHT22;49504;48.336;14.472;2022-10-13T17:22:21;26.90;49.90
63371;DHT22;49504;48.336;14.472;2022-10-13T17:27:22;26.90;50.50
63371;DHT22;49504;48.336;14.472;2022-10-13T17:32:23;26.90;50.50
63371;DHT22;49504;48.336;14.472;2022-10-13T17:37:25;27.00;50.50
63371;DHT22;49504;48.336;14.472;2022-10-13T17:44:39;26.90;49.90
63371;DHT22;49504;48.336;14.472;2022-10-13T17:49:40;26.90;50.50
63371;DHT22;49504;48.336;14.472;2022-10-13T17:54:41;26.90;50.60
63371;DHT22;49504;48.336;14.472;2022-10-13T17:59:44;26.90;50.70
63371;DHT22;49504;48.336;14.472;2022-10-13T18:04:45;26.90;50.70
63371;DHT22;49504;48.336;14.472;2022-10-13T18:09:49;26.90;50.70
63371;DHT22;49504;48.336;14.472;2022-10-13T18:14:52;26.90;50.60
63371;DHT22;49504;48.336;14.472;2022-10-13T18:19:52;26.80;50.40
63371;DHT22;49504;48.336;14.472;2022-10-13T18:27:48;26.80;49.80
63371;DHT22;49504;48.336;14.472;2022-10-13T18:32:49;26.80;50.30
63371;DHT22;49504;48.336;14.472;2022-10-13T18:37:50;26.80;50.40
63371;DHT22;49504;48.336;14.472;2022-10-13T18:42:53;26.80;50.50
63371;DHT22;49504;48.336;14.472;2022-10-13T18:47:54;26.80;50.60
63371;DHT22;49504;48.336;14.472;2022-10-13T18:52:55;26.80;50.70
63371;DHT22;49504;48.336;14.472;2022-10-13T18:59:11;26.70;49.90
63371;DHT22;49504;48.336;14.472;2022-10-13T19:04:12;26.80;50.60
63371;DHT22;49504;48.336;14.472;2022-10-13T19:09:14;26.70;50.60
63371;DHT22;49504;48.336;14.472;2022-10-13T19:14:17;26.70;50.50
63371;DHT22;49504;48.336;14.472;2022-10-13T19:19:18;26.70;50.20
63371;DHT22;49504;48.336;14.472;2022-10-13T19:24:19;26.80;50.20
63371;DHT22;49504;48.336;14.472;2022-10-13T19:29:21;26.70;50.10
63371;DHT22;49504;48.336;14.472;2022-10-13T19:34:22;26.70;50.00
63371;DHT22;49504;48.336;14.472;2022-10-13T19:39:23;26.70;50.10
63371;DHT22;49504;48.336;14.472;2022-10-13T19:44:26;26.70;50.00
63371;DHT22;49504;48.336;14.472;2022-10-13T19:49:27;26.70;50.10
63371;DHT22;49504;48.336;14.472;2022-10-13T19:54:28;26.70;50.20
63371;DHT22;49504;48.336;14.472;2022-10-13T19:59:30;26.70;50.30
63371;DHT22;49504;48.336;14.472;2022-10-13T20:04:31;26.70;50.30
63371;DHT22;49504;48.336;14.472;2022-10-13T20:09:32;26.70;50.40
63371;DHT22;49504;48.336;14.472;2022-10-13T20:17:33;26.60;49.70
63371;DHT22;49504;48.336;14.472;2022-10-13T20:22:34;26.60;50.30
63371;DHT22;49504;48.336;14.472;2022-10-13T20:27:34;26.70;50.30
63371;DHT22;49504;48.336;14.472;2022-10-13T20:32:37;26.60;50.30
63371;DHT22;49504;48.336;14.472;2022-10-13T20:37:38;26.60;50.30
63371;DHT22;49504;48.336;14.472;2022-10-13T20:42:39;26.60;50.40
63371;DHT22;49504;48.336;14.472;2022-10-13T20:47:41;26.60;50.30
63371;DHT22;49504;48.336;14.472;2022-10-13T20:52:42;26.60;50.50
63371;DHT22;49504;48.336;14.472;2022-10-13T20:57:43;26.60;50.10
63371;DHT22;49504;48.336;14.472;2022-10-13T21:02:46;26.60;50.20
63371;DHT22;49504;48.336;14.472;2022-10-13T21:07:47;26.60;50.20
63371;DHT22;49504;48.336;14.472;2022-10-13T21:12:48;26.50;50.00
63371;DHT22;49504;48.336;14.472;2022-10-13T21:17:50;26.60;50.10
63371;DHT22;49504;48.336;14.472;2022-10-13T21:22:51;26.50;50.10
63371;DHT22;49504;48.336;14.472;2022-10-13T21:27:52;26.50;50.00
63371;DHT22;49504;48.336;14.472;2022-10-13T21:32:55;26.60;50.40
63371;DHT22;49504;48.336;14.472;2022-10-13T21:37:56;26.50;50.40
63371;DHT22;49504;48.336;14.472;2022-10-13T21:42:57;26.60;50.30
63371;DHT22;49504;48.336;14.472;2022-10-13T21:47:59;26.60;50.50
63371;DHT22;49504;48.336;14.472;2022-10-13T21:53:00;26.50;50.40
63371;DHT22;49504;48.336;14.472;2022-10-13T21:58:01;26.50;50.30
63371;DHT22;49504;48.336;14.472;2022-10-13T22:03:03;26.50;50.30
63371;DHT22;49504;48.336;14.472;2022-10-13T22:12:38;26.50;49.80
63371;DHT22;49504;48.336;14.472;2022-10-13T22:17:39;26.50;50.40
63371;DHT22;49504;48.336;14.472;2022-10-13T22:22:39;26.50;50.30
63371;DHT22;49504;48.336;14.472;2022-10-13T22:27:42;26.50;50.40
63371;DHT22;49504;48.336;14.472;2022-10-13T22:32:43;26.50;50.20
63371;DHT22;49504;48.336;14.472;2022-10-13T22:37:44;26.50;50.40
63371;DHT22;49504;48.336;14.472;2022-10-13T22:42:46;26.50;50.50
63371;DHT22;49504;48.336;14.472;2022-10-13T22:47:47;26.50;50.60
63371;DHT22;49504;48.336;14.472;2022-10-13T22:52:49;26.50;50.90
63371;DHT22;49504;48.336;14.472;2022-10-13T22:57:51;26.50;50.90
63371;DHT22;49504;48.336;14.472;2022-10-13T23:02:52;26.50;51.00
63371;DHT22;49504;48.336;14.472;2022-10-13T23:07:53;26.50;51.00
63371;DHT22;49504;48.336;14.472;2022-10-13T23:12:56;26.50;51.00
63371;DHT22;49504;48.336;14.472;2022-10-13T23:17:57;26.50;51.10
63371;DHT22;49504;48.336;14.472;2022-10-13T23:22:57;26.50;51.00
63371;DHT22;49504;48.336;14.472;2022-10-13T23:32:16;26.40;50.30
63371;DHT22;49504;48.336;14.472;2022-10-13T23:37:17;26.50;51.10
63371;DHT22;49504;48.336;14.472;2022-10-13T23:42:18;26.50;51.20
63371;DHT22;49504;48.336;14.472;2022-10-13T23:47:20;26.50;51.20
63371;DHT22;49504;48.336;14.472;2022-10-13T23:52:21;26.40;51.10
63371;DHT22;49504;48.336;14.472;2022-10-13T23:57:22;26.40;51.10
